Black Meadow Landing, California
Current Conditions -  °F | °C
As of 8:55 PM on Friday 28 Nov 2014 (Local Time) from KHII Reporting Station
Clear Clear  
Wind Chill: 59°   Ceiling: Unl
Heat Index: 59°   Visibility: 10mi
Dew Point: 19°   Wind: 0mph
Humidity: 22%   Direction: NA
Pressure: 29.89"   Gusts: NA
Location:  34.2861°N, 114.142°W
Report Text: KHII 290455Z AUTO 00000KT 10SM CLR 15/M07 A2989 RMK AO2
Loading
Personal Weather Stations






























Interactive Weather Map New forecast layout! Learn more

10-Day Weather Forecast

Advertisements
Track Severe Weather on mobile